• Join FlightAware (Why Join?)
  • Login
  • US Flag 
07:08PM EDT


 

Airport Tracker/Info


-or-


 

Live Flight TrackerFlight Track Log ✈ QLK320 ✈ 19-Apr-2013 ✈ YBBN / BNE - YBUD / BDB

Flight Track Log - Related Links

Times and Time Zones

All times are in EDT time to prevent confusion due to time zone crossing. See the QLK320 flight status page for this flight to view local times or setup timezone preferences in your user account.

Time Position Orientation Groundspeed Altitude Reporting Facility
EDT Latitude Longitude Course Direction KTS MPH feet Rate Location/Type
06:35PM -27.2840 153.0911 326° Northwest 151 174 2,900  Level Aus ATC (RADAR)
06:36PM -27.2239 153.0461 326° Northwest 197 227 4,000 780 Climbing Aus ATC (RADAR)
06:38PM -27.1105 153.0161 347° North 227 261 5,600 720 Climbing Aus ATC (RADAR)
06:41PM -26.9243 152.9776 350° North 226 260 7,800 780 Climbing Aus ATC (RADAR)
06:43PM -26.8422 152.9622 350° North 219 252 9,100 840 Climbing Aus ATC (RADAR)
06:44PM -26.7303 152.9399 350° North 218 251 10,500 780 Climbing Aus ATC (RADAR)
06:47PM -26.5851 152.9119 350° North 208 239 12,600 720 Climbing Aus ATC (RADAR)
06:48PM -26.5074 152.8970 350° North 212 244 13,500 660 Climbing Aus ATC (RADAR)
06:49PM -26.4930 152.8945 351° North 210 242 13,800 120 Climbing Aus ATC (RADAR)
06:52PM -26.2823 152.8540 350° North 252 290 14,000  Climbing Aus ATC (RADAR)
06:53PM -26.1950 152.8376 350° North 255 293 14,000  Level Aus ATC (RADAR)
06:54PM -26.0956 152.8178 350° North 257 296 14,000  Level Aus ATC (RADAR)
06:55PM -26.0779 152.8149 352° North 258 297 14,000  Level Aus ATC (RADAR)
06:56PM -25.9722 152.7945 350° North 256 295 14,000  Level Aus ATC (RADAR)
06:59PM -25.7889 152.7601 350° North 259 298 14,000 -120 Level Aus ATC (RADAR)
07:00PM -25.6686 152.7368 350° North 271 312 13,500 -360 Descending Aus ATC (RADAR)
07:02PM -25.5856 152.7219 351° North 281 323 13,000 -360 Descending Aus ATC (RADAR)
07:03PM -25.5147 152.7092 351° North 280 322 12,500 -1,140 Descending Aus ATC (RADAR)
07:05PM -25.3585 152.6073 329° Northwest 266 306 9,600 -1,740 Descending Aus ATC (RADAR)
07:06PM -25.2617 152.5455 330° Northwest 254 292 7,600 -1,440 Descending Aus ATC (RADAR)
07:07PM -25.2460 152.5360 331° Northwest 257 296 7,200 -1,380 Descending Aus ATC (RADAR)
07:08PM -25.1501 152.4771 331° Northwest 243 280 5,100 -1,020 Descending Aus ATC (RADAR)
07:12PM -24.9659 152.3573 329° Northwest 140 161 1,600 -840 Descending Aus ATC (RADAR)
07:12PM -24.9575 152.3519 330° Northwest 140 161 1,600  Level Aus ATC (RADAR)
07:13PM -24.9444 152.3432 329° Northwest 135 155 1,600  Level Aus ATC (RADAR)